sensor_id;sensor_type;location;lat;lon;timestamp;pressure;altitude;pressure_sealevel;temperature;humidity
21300;BME280;10809;49.476;11.016;2023-03-16T00:01:21;98821.69;;;0.37;63.12
21300;BME280;10809;49.476;11.016;2023-03-16T00:03:51;98825.16;;;0.34;63.56
21300;BME280;10809;49.476;11.016;2023-03-16T00:06:22;98827.78;;;0.33;63.58
21300;BME280;10809;49.476;11.016;2023-03-16T00:08:53;98822.59;;;0.31;63.54
21300;BME280;10809;49.476;11.016;2023-03-16T00:11:28;98830.41;;;0.31;63.57
21300;BME280;10809;49.476;11.016;2023-03-16T00:13:59;98836.47;;;0.30;63.25
21300;BME280;10809;49.476;11.016;2023-03-16T00:16:33;98828.69;;;0.27;63.57
21300;BME280;10809;49.476;11.016;2023-03-16T00:19:04;98829.59;;;0.25;63.31
21300;BME280;10809;49.476;11.016;2023-03-16T00:21:35;98833.03;;;0.24;63.82
21300;BME280;10809;49.476;11.016;2023-03-16T00:24:06;98828.72;;;0.23;63.78
21300;BME280;10809;49.476;11.016;2023-03-16T00:26:40;98827.03;;;0.20;63.36
21300;BME280;10809;49.476;11.016;2023-03-16T00:29:14;98827.03;;;0.19;63.54
21300;BME280;10809;49.476;11.016;2023-03-16T00:31:45;98824.44;;;0.17;63.18
21300;BME280;10809;49.476;11.016;2023-03-16T00:34:16;98828.75;;;0.18;63.35
21300;BME280;10809;49.476;11.016;2023-03-16T00:36:46;98823.56;;;0.15;63.50
21300;BME280;10809;49.476;11.016;2023-03-16T00:39:17;98825.28;;;0.16;63.32
21300;BME280;10809;49.476;11.016;2023-03-16T00:41:47;98828.78;;;0.14;63.36
21300;BME280;10809;49.476;11.016;2023-03-16T00:44:18;98824.47;;;0.11;63.50
21300;BME280;10809;49.476;11.016;2023-03-16T00:46:49;98825.31;;;0.10;63.29
21300;BME280;10809;49.476;11.016;2023-03-16T00:49:20;98826.22;;;0.08;63.52
21300;BME280;10809;49.476;11.016;2023-03-16T00:51:51;98814.94;;;0.07;63.54
21300;BME280;10809;49.476;11.016;2023-03-16T00:54:26;98819.28;;;0.05;63.41
21300;BME280;10809;49.476;11.016;2023-03-16T00:57:00;98820.16;;;0.04;63.66
21300;BME280;10809;49.476;11.016;2023-03-16T00:59:31;98817.56;;;0.01;63.45
21300;BME280;10809;49.476;11.016;2023-03-16T01:02:08;98818.47;;;0.00;63.83
21300;BME280;10809;49.476;11.016;2023-03-16T01:04:39;98821.06;;;-0.01;63.56
21300;BME280;10809;49.476;11.016;2023-03-16T01:07:13;98811.53;;;-0.04;63.83
21300;BME280;10809;49.476;11.016;2023-03-16T01:09:43;98808.91;;;-0.05;63.55
21300;BME280;10809;49.476;11.016;2023-03-16T01:12:19;98813.28;;;-0.06;63.44
21300;BME280;10809;49.476;11.016;2023-03-16T01:14:55;98815.03;;;-0.08;63.99
21300;BME280;10809;49.476;11.016;2023-03-16T01:17:32;98811.56;;;-0.10;63.61
21300;BME280;10809;49.476;11.016;2023-03-16T01:20:04;98805.50;;;-0.12;63.34
21300;BME280;10809;49.476;11.016;2023-03-16T01:22:37;98816.78;;;-0.13;63.10
21300;BME280;10809;49.476;11.016;2023-03-16T01:25:10;98818.53;;;-0.15;63.78
21300;BME280;10809;49.476;11.016;2023-03-16T01:27:44;98813.34;;;-0.18;63.33
21300;BME280;10809;49.476;11.016;2023-03-16T01:30:14;98804.69;;;-0.20;63.89
21300;BME280;10809;49.476;11.016;2023-03-16T01:32:45;98816.81;;;-0.22;63.59
21300;BME280;10809;49.476;11.016;2023-03-16T01:35:23;98820.31;;;-0.23;63.36
21300;BME280;10809;49.476;11.016;2023-03-16T01:37:53;98828.13;;;-0.24;63.72
21300;BME280;10809;49.476;11.016;2023-03-16T01:40:28;98824.66;;;-0.26;63.63
21300;BME280;10809;49.476;11.016;2023-03-16T01:43:03;98826.41;;;-0.30;63.58
21300;BME280;10809;49.476;11.016;2023-03-16T01:48:46;98822.97;;;-0.33;63.33
21300;BME280;10809;49.476;11.016;2023-03-16T01:54:09;98825.59;;;-0.39;63.70
21300;BME280;10809;49.476;11.016;2023-03-16T01:57:11;98813.47;;;-0.42;63.38
21300;BME280;10809;49.476;11.016;2023-03-16T02:00:13;98817.81;;;-0.44;63.60
21300;BME280;10809;49.476;11.016;2023-03-16T02:03:12;98811.72;;;-0.46;63.40
21300;BME280;10809;49.476;11.016;2023-03-16T02:06:08;98815.22;;;-0.47;63.56
21300;BME280;10809;49.476;11.016;2023-03-16T02:08:46;98807.41;;;-0.50;63.42
21300;BME280;10809;49.476;11.016;2023-03-16T02:11:17;98798.75;;;-0.52;63.75
21300;BME280;10809;49.476;11.016;2023-03-16T02:14:03;98798.75;;;-0.53;63.67
21300;BME280;10809;49.476;11.016;2023-03-16T02:16:41;98806.56;;;-0.55;63.46
21300;BME280;10809;49.476;11.016;2023-03-16T02:22:07;98808.31;;;-0.60;63.63
21300;BME280;10809;49.476;11.016;2023-03-16T02:24:39;98813.53;;;-0.63;63.66
21300;BME280;10809;49.476;11.016;2023-03-16T02:30:16;98810.09;;;-0.66;63.78
21300;BME280;10809;49.476;11.016;2023-03-16T02:33:11;98817.00;;;-0.67;63.57
21300;BME280;10809;49.476;11.016;2023-03-16T02:35:42;98817.91;;;-0.68;63.70
21300;BME280;10809;49.476;11.016;2023-03-16T02:38:13;98818.75;;;-0.69;63.69
21300;BME280;10809;49.476;11.016;2023-03-16T02:40:58;98819.63;;;-0.68;63.81
21300;BME280;10809;49.476;11.016;2023-03-16T02:43:33;98816.13;;;-0.69;63.91
21300;BME280;10809;49.476;11.016;2023-03-16T02:46:20;98817.03;;;-0.70;63.82
21300;BME280;10809;49.476;11.016;2023-03-16T02:51:32;98805.75;;;-0.72;63.86
21300;BME280;10809;49.476;11.016;2023-03-16T02:54:02;98811.81;;;-0.73;63.90
21300;BME280;10809;49.476;11.016;2023-03-16T02:56:39;98802.31;;;-0.74;63.95
21300;BME280;10809;49.476;11.016;2023-03-16T02:59:09;98804.91;;;-0.75;63.78
21300;BME280;10809;49.476;11.016;2023-03-16T03:01:44;98804.03;;;-0.76;63.79
21300;BME280;10809;49.476;11.016;2023-03-16T03:04:15;98810.97;;;-0.76;63.92
21300;BME280;10809;49.476;11.016;2023-03-16T03:06:49;98807.53;;;-0.77;63.74
21300;BME280;10809;49.476;11.016;2023-03-16T03:09:20;98801.44;;;-0.79;63.88
21300;BME280;10809;49.476;11.016;2023-03-16T03:11:55;98802.31;;;-0.78;63.69
21300;BME280;10809;49.476;11.016;2023-03-16T03:14:29;98796.25;;;-0.79;63.92
21300;BME280;10809;49.476;11.016;2023-03-16T03:17:00;98793.66;;;-0.79;63.95
21300;BME280;10809;49.476;11.016;2023-03-16T03:19:32;98798.84;;;-0.79;64.07
21300;BME280;10809;49.476;11.016;2023-03-16T03:22:04;98804.06;;;-0.80;63.61
21300;BME280;10809;49.476;11.016;2023-03-16T03:24:36;98801.47;;;-0.80;63.93
21300;BME280;10809;49.476;11.016;2023-03-16T03:27:07;98799.75;;;-0.81;63.50
21300;BME280;10809;49.476;11.016;2023-03-16T03:29:40;98800.59;;;-0.84;63.99
21300;BME280;10809;49.476;11.016;2023-03-16T03:32:11;98804.94;;;-0.86;63.63
21300;BME280;10809;49.476;11.016;2023-03-16T03:34:42;98808.41;;;-0.87;63.80
21300;BME280;10809;49.476;11.016;2023-03-16T03:37:12;98814.47;;;-0.88;63.64
21300;BME280;10809;49.476;11.016;2023-03-16T03:39:44;98817.97;;;-0.90;63.95
21300;BME280;10809;49.476;11.016;2023-03-16T03:42:16;98816.19;;;-0.91;63.93
21300;BME280;10809;49.476;11.016;2023-03-16T03:44:53;98816.22;;;-0.94;64.14
21300;BME280;10809;49.476;11.016;2023-03-16T03:47:23;98818.81;;;-0.94;63.90
21300;BME280;10809;49.476;11.016;2023-03-16T03:49:54;98820.53;;;-0.96;64.13
21300;BME280;10809;49.476;11.016;2023-03-16T03:52:43;98826.59;;;-0.97;63.67
21300;BME280;10809;49.476;11.016;2023-03-16T03:55:16;98821.41;;;-1.00;63.84
21300;BME280;10809;49.476;11.016;2023-03-16T03:57:47;98816.22;;;-1.02;63.83
21300;BME280;10809;49.476;11.016;2023-03-16T04:00:18;98820.56;;;-1.05;63.84
21300;BME280;10809;49.476;11.016;2023-03-16T04:02:51;98819.72;;;-1.07;63.86
21300;BME280;10809;49.476;11.016;2023-03-16T04:05:31;98809.31;;;-1.09;64.18
21300;BME280;10809;49.476;11.016;2023-03-16T04:08:02;98808.44;;;-1.11;63.69
21300;BME280;10809;49.476;11.016;2023-03-16T04:10:33;98804.97;;;-1.13;63.84
21300;BME280;10809;49.476;11.016;2023-03-16T04:13:04;98813.66;;;-1.14;63.99
21300;BME280;10809;49.476;11.016;2023-03-16T04:15:37;98810.19;;;-1.16;63.81
21300;BME280;10809;49.476;11.016;2023-03-16T04:18:15;98806.75;;;-1.18;63.95
21300;BME280;10809;49.476;11.016;2023-03-16T04:20:47;98803.25;;;-1.20;63.76
21300;BME280;10809;49.476;11.016;2023-03-16T04:23:21;98798.94;;;-1.21;63.84
21300;BME280;10809;49.476;11.016;2023-03-16T04:25:55;98790.28;;;-1.23;64.06
21300;BME280;10809;49.476;11.016;2023-03-16T04:28:30;98793.75;;;-1.24;64.03
21300;BME280;10809;49.476;11.016;2023-03-16T04:31:11;98792.00;;;-1.27;63.94
21300;BME280;10809;49.476;11.016;2023-03-16T04:33:51;98788.56;;;-1.29;64.05
21300;BME280;10809;49.476;11.016;2023-03-16T04:36:28;98785.97;;;-1.30;64.20
21300;BME280;10809;49.476;11.016;2023-03-16T04:38:59;98789.41;;;-1.31;63.74
21300;BME280;10809;49.476;11.016;2023-03-16T04:41:32;98785.09;;;-1.34;63.76
21300;BME280;10809;49.476;11.016;2023-03-16T04:44:13;98787.69;;;-1.35;64.16
21300;BME280;10809;49.476;11.016;2023-03-16T04:46:43;98785.97;;;-1.36;64.10
21300;BME280;10809;49.476;11.016;2023-03-16T04:49:15;98780.78;;;-1.36;63.93
21300;BME280;10809;49.476;11.016;2023-03-16T04:51:48;98790.31;;;-1.38;64.33
21300;BME280;10809;49.476;11.016;2023-03-16T04:54:25;98787.69;;;-1.38;64.00
21300;BME280;10809;49.476;11.016;2023-03-16T04:56:56;98789.44;;;-1.40;64.25
21300;BME280;10809;49.476;11.016;2023-03-16T04:59:41;98787.72;;;-1.41;64.03
21300;BME280;10809;49.476;11.016;2023-03-16T05:02:38;98783.41;;;-1.42;63.74
21300;BME280;10809;49.476;11.016;2023-03-16T05:05:12;98785.13;;;-1.43;63.92
21300;BME280;10809;49.476;11.016;2023-03-16T05:07:47;98782.53;;;-1.44;63.67
21300;BME280;10809;49.476;11.016;2023-03-16T05:10:19;98779.94;;;-1.46;63.95
21300;BME280;10809;49.476;11.016;2023-03-16T05:12:50;98786.84;;;-1.46;63.91
21300;BME280;10809;49.476;11.016;2023-03-16T05:15:21;98784.25;;;-1.49;63.74
21300;BME280;10809;49.476;11.016;2023-03-16T05:18:12;98780.78;;;-1.51;64.08
21300;BME280;10809;49.476;11.016;2023-03-16T05:20:55;98779.06;;;-1.52;64.00
21300;BME280;10809;49.476;11.016;2023-03-16T05:23:30;98779.06;;;-1.54;64.27
21300;BME280;10809;49.476;11.016;2023-03-16T05:26:05;98774.75;;;-1.55;63.98
21300;BME280;10809;49.476;11.016;2023-03-16T05:28:45;98779.06;;;-1.55;64.43
21300;BME280;10809;49.476;11.016;2023-03-16T05:31:20;98765.19;;;-1.57;64.07
21300;BME280;10809;49.476;11.016;2023-03-16T05:33:55;98766.94;;;-1.58;64.23
21300;BME280;10809;49.476;11.016;2023-03-16T05:36:27;98777.34;;;-1.59;64.01
21300;BME280;10809;49.476;11.016;2023-03-16T05:39:04;98775.59;;;-1.60;64.17
21300;BME280;10809;49.476;11.016;2023-03-16T05:41:47;98773.88;;;-1.61;64.02
21300;BME280;10809;49.476;11.016;2023-03-16T05:44:34;98772.16;;;-1.62;64.14
21300;BME280;10809;49.476;11.016;2023-03-16T05:47:21;98781.66;;;-1.63;64.59
21300;BME280;10809;49.476;11.016;2023-03-16T05:49:59;98778.19;;;-1.63;64.35
21300;BME280;10809;49.476;11.016;2023-03-16T05:52:39;98779.06;;;-1.63;64.41
21300;BME280;10809;49.476;11.016;2023-03-16T05:55:20;98774.75;;;-1.64;64.06
21300;BME280;10809;49.476;11.016;2023-03-16T05:58:02;98786.84;;;-1.63;64.29
21300;BME280;10809;49.476;11.016;2023-03-16T06:00:33;98777.34;;;-1.64;64.22
21300;BME280;10809;49.476;11.016;2023-03-16T06:03:13;98779.06;;;-1.63;64.26
21300;BME280;10809;49.476;11.016;2023-03-16T06:05:43;98777.34;;;-1.62;64.45
21300;BME280;10809;49.476;11.016;2023-03-16T06:08:14;98778.19;;;-1.60;64.45
21300;BME280;10809;49.476;11.016;2023-03-16T06:10:51;98777.34;;;-1.59;64.69
21300;BME280;10809;49.476;11.016;2023-03-16T06:13:29;98778.19;;;-1.59;64.46
21300;BME280;10809;49.476;11.016;2023-03-16T06:16:01;98782.53;;;-1.56;64.78
21300;BME280;10809;49.476;11.016;2023-03-16T06:18:32;98780.78;;;-1.54;64.96
21300;BME280;10809;49.476;11.016;2023-03-16T06:21:03;98792.91;;;-1.52;65.03
21300;BME280;10809;49.476;11.016;2023-03-16T06:23:34;98797.22;;;-1.49;64.86
21300;BME280;10809;49.476;11.016;2023-03-16T06:26:06;98798.97;;;-1.45;64.80
21300;BME280;10809;49.476;11.016;2023-03-16T06:28:39;98807.59;;;-1.43;65.41
21300;BME280;10809;49.476;11.016;2023-03-16T06:31:11;98795.50;;;-1.38;65.12
21300;BME280;10809;49.476;11.016;2023-03-16T06:33:47;98807.59;;;-1.34;65.49
21300;BME280;10809;49.476;11.016;2023-03-16T06:36:18;98795.50;;;-1.31;65.03
21300;BME280;10809;49.476;11.016;2023-03-16T06:38:56;98800.69;;;-1.25;65.29
21300;BME280;10809;49.476;11.016;2023-03-16T06:41:39;98809.34;;;-1.21;64.91
21300;BME280;10809;49.476;11.016;2023-03-16T06:44:11;98805.88;;;-1.19;65.05
21300;BME280;10809;49.476;11.016;2023-03-16T06:46:49;98807.56;;;-1.15;65.34
21300;BME280;10809;49.476;11.016;2023-03-16T06:49:20;98806.72;;;-1.10;65.19
21300;BME280;10809;49.476;11.016;2023-03-16T06:51:57;98798.06;;;-1.08;65.03
21300;BME280;10809;49.476;11.016;2023-03-16T06:54:30;98798.03;;;-1.03;65.20
21300;BME280;10809;49.476;11.016;2023-03-16T06:57:06;98789.38;;;-1.01;65.33
21300;BME280;10809;49.476;11.016;2023-03-16T06:59:40;98792.81;;;-0.97;65.67
21300;BME280;10809;49.476;11.016;2023-03-16T07:02:12;98801.50;;;-0.94;65.45
21300;BME280;10809;49.476;11.016;2023-03-16T07:04:49;98799.75;;;-0.90;65.42
21300;BME280;10809;49.476;11.016;2023-03-16T07:07:21;98799.75;;;-0.86;66.02
21300;BME280;10809;49.476;11.016;2023-03-16T07:09:53;98801.44;;;-0.70;68.20
21300;BME280;10809;49.476;11.016;2023-03-16T07:12:25;98804.75;;;-0.36;70.06
21300;BME280;10809;49.476;11.016;2023-03-16T07:23:58;98792.94;;;2.05;71.99
21300;BME280;10809;49.476;11.016;2023-03-16T07:26:33;98793.78;;;2.63;73.09
21300;BME280;10809;49.476;11.016;2023-03-16T07:29:04;98785.88;;;3.18;72.42
21300;BME280;10809;49.476;11.016;2023-03-16T07:31:43;98789.13;;;3.74;71.49
21300;BME280;10809;49.476;11.016;2023-03-16T07:34:19;98787.94;;;4.27;71.49
21300;BME280;10809;49.476;11.016;2023-03-16T07:36:58;98792.78;;;4.80;70.70
21300;BME280;10809;49.476;11.016;2023-03-16T07:39:36;98783.56;;;5.31;69.97
21300;BME280;10809;49.476;11.016;2023-03-16T07:42:12;98782.28;;;5.78;69.08
21300;BME280;10809;49.476;11.016;2023-03-16T07:44:57;98779.16;;;6.22;67.66
21300;BME280;10809;49.476;11.016;2023-03-16T07:47:30;98776.22;;;6.59;66.54
21300;BME280;10809;49.476;11.016;2023-03-16T07:50:09;98776.09;;;6.89;65.52
21300;BME280;10809;49.476;11.016;2023-03-16T07:52:46;98764.66;;;7.16;64.86
21300;BME280;10809;49.476;11.016;2023-03-16T07:55:17;98769.19;;;7.37;64.31
21300;BME280;10809;49.476;11.016;2023-03-16T07:57:50;98757.00;;;7.58;63.78
21300;BME280;10809;49.476;11.016;2023-03-16T08:00:28;98761.50;;;7.79;63.52
21300;BME280;10809;49.476;11.016;2023-03-16T08:02:59;98768.66;;;7.99;63.40
21300;BME280;10809;49.476;11.016;2023-03-16T08:05:33;98771.38;;;8.19;62.74
21300;BME280;10809;49.476;11.016;2023-03-16T08:08:10;98769.78;;;8.38;62.82
21300;BME280;10809;49.476;11.016;2023-03-16T08:10:49;98761.91;;;8.58;62.31
21300;BME280;10809;49.476;11.016;2023-03-16T08:13:27;98761.25;;;8.74;61.65
21300;BME280;10809;49.476;11.016;2023-03-16T08:16:01;98753.63;;;8.88;60.95
21300;BME280;10809;49.476;11.016;2023-03-16T08:18:46;98752.25;;;9.00;60.42
21300;BME280;10809;49.476;11.016;2023-03-16T08:21:20;98752.13;;;9.03;59.47
21300;BME280;10809;49.476;11.016;2023-03-16T08:23:51;98766.13;;;9.05;59.10
21300;BME280;10809;49.476;11.016;2023-03-16T08:26:23;98760.00;;;9.04;58.62
21300;BME280;10809;49.476;11.016;2023-03-16T08:28:58;98760.97;;;9.02;58.87
21300;BME280;10809;49.476;11.016;2023-03-16T08:31:33;98760.06;;;9.03;58.43
21300;BME280;10809;49.476;11.016;2023-03-16T08:34:29;98758.44;;;8.99;57.64
21300;BME280;10809;49.476;11.016;2023-03-16T08:37:00;98758.91;;;8.88;57.20
21300;BME280;10809;49.476;11.016;2023-03-16T08:39:31;98757.69;;;8.75;57.14
21300;BME280;10809;49.476;11.016;2023-03-16T08:42:03;98756.41;;;8.64;57.26
21300;BME280;10809;49.476;11.016;2023-03-16T08:44:47;98745.41;;;8.53;57.41
21300;BME280;10809;49.476;11.016;2023-03-16T08:47:18;98740.50;;;8.44;57.61
21300;BME280;10809;49.476;11.016;2023-03-16T08:49:49;98743.38;;;8.38;57.49
21300;BME280;10809;49.476;11.016;2023-03-16T08:52:20;98743.63;;;8.32;57.38
21300;BME280;10809;49.476;11.016;2023-03-16T08:54:52;98748.28;;;8.25;57.59
21300;BME280;10809;49.476;11.016;2023-03-16T08:57:22;98739.84;;;8.16;56.83
21300;BME280;10809;49.476;11.016;2023-03-16T08:59:53;98749.06;;;8.06;56.97
21300;BME280;10809;49.476;11.016;2023-03-16T09:02:24;98765.41;;;7.92;55.72
21300;BME280;10809;49.476;11.016;2023-03-16T09:04:55;98764.25;;;7.76;55.35
21300;BME280;10809;49.476;11.016;2023-03-16T09:07:25;98758.78;;;7.57;55.34
21300;BME280;10809;49.476;11.016;2023-03-16T09:09:57;98753.38;;;7.37;54.76
21300;BME280;10809;49.476;11.016;2023-03-16T09:12:27;98758.44;;;7.19;55.35
21300;BME280;10809;49.476;11.016;2023-03-16T09:14:58;98755.44;;;7.03;55.50
21300;BME280;10809;49.476;11.016;2023-03-16T09:17:28;98754.09;;;6.92;55.99
21300;BME280;10809;49.476;11.016;2023-03-16T09:19:59;98756.16;;;6.82;56.24
21300;BME280;10809;49.476;11.016;2023-03-16T09:22:37;98752.03;;;6.74;56.64
21300;BME280;10809;49.476;11.016;2023-03-16T09:25:14;98748.72;;;6.69;56.68
21300;BME280;10809;49.476;11.016;2023-03-16T09:27:45;98754.19;;;6.63;56.09
21300;BME280;10809;49.476;11.016;2023-03-16T09:30:16;98753.53;;;6.56;55.75
21300;BME280;10809;49.476;11.016;2023-03-16T09:32:47;98748.50;;;6.49;55.65
21300;BME280;10809;49.476;11.016;2023-03-16T09:35:18;98759.28;;;6.41;55.73
21300;BME280;10809;49.476;11.016;2023-03-16T09:37:48;98747.25;;;6.34;55.41
21300;BME280;10809;49.476;11.016;2023-03-16T09:40:25;98744.84;;;6.27;55.77
21300;BME280;10809;49.476;11.016;2023-03-16T09:46:10;98753.97;;;6.15;56.26
21300;BME280;10809;49.476;11.016;2023-03-16T09:48:42;98742.63;;;6.13;55.50
21300;BME280;10809;49.476;11.016;2023-03-16T09:51:28;98754.97;;;6.11;55.63
21300;BME280;10809;49.476;11.016;2023-03-16T09:54:28;98750.66;;;6.08;55.99
21300;BME280;10809;49.476;11.016;2023-03-16T09:57:02;98747.19;;;6.08;55.32
21300;BME280;10809;49.476;11.016;2023-03-16T09:59:34;98748.06;;;6.07;55.36
21300;BME280;10809;49.476;11.016;2023-03-16T10:04:59;98743.50;;;6.14;56.02
21300;BME280;10809;49.476;11.016;2023-03-16T10:11:10;98736.16;;;6.25;55.20
21300;BME280;10809;49.476;11.016;2023-03-16T10:14:04;98731.66;;;6.28;55.06
21300;BME280;10809;49.476;11.016;2023-03-16T10:16:47;98718.50;;;6.28;54.98
21300;BME280;10809;49.476;11.016;2023-03-16T10:19:45;98725.47;;;6.29;55.11
21300;BME280;10809;49.476;11.016;2023-03-16T10:22:22;98722.75;;;6.32;54.82
21300;BME280;10809;49.476;11.016;2023-03-16T10:27:45;98709.59;;;6.32;54.18
21300;BME280;10809;49.476;11.016;2023-03-16T10:30:34;98708.59;;;6.36;54.50
21300;BME280;10809;49.476;11.016;2023-03-16T10:33:32;98702.50;;;6.36;54.31
21300;BME280;10809;49.476;11.016;2023-03-16T10:36:24;98699.88;;;6.36;54.34
21300;BME280;10809;49.476;11.016;2023-03-16T10:39:16;98703.31;;;6.36;54.04
21300;BME280;10809;49.476;11.016;2023-03-16T10:41:56;98696.25;;;6.38;54.09
21300;BME280;10809;49.476;11.016;2023-03-16T10:44:38;98687.44;;;6.39;54.12
21300;BME280;10809;49.476;11.016;2023-03-16T10:47:18;98682.91;;;6.44;54.16
21300;BME280;10809;49.476;11.016;2023-03-16T10:50:13;98682.75;;;6.49;54.36
21300;BME280;10809;49.476;11.016;2023-03-16T10:52:48;98685.22;;;6.53;54.13
21300;BME280;10809;49.476;11.016;2023-03-16T10:55:26;98681.53;;;6.59;53.70
21300;BME280;10809;49.476;11.016;2023-03-16T10:58:04;98677.91;;;6.63;53.03
21300;BME280;10809;49.476;11.016;2023-03-16T11:00:42;98675.16;;;6.66;52.95
21300;BME280;10809;49.476;11.016;2023-03-16T11:03:24;98682.91;;;6.70;53.10
21300;BME280;10809;49.476;11.016;2023-03-16T11:06:03;98669.69;;;6.72;53.26
21300;BME280;10809;49.476;11.016;2023-03-16T11:08:37;98669.63;;;6.73;52.80
21300;BME280;10809;49.476;11.016;2023-03-16T11:11:26;98670.41;;;6.77;53.06
21300;BME280;10809;49.476;11.016;2023-03-16T11:14:02;98672.94;;;6.80;53.05
21300;BME280;10809;49.476;11.016;2023-03-16T11:16:38;98676.22;;;6.85;53.18
21300;BME280;10809;49.476;11.016;2023-03-16T11:19:33;98667.28;;;6.90;53.26
21300;BME280;10809;49.476;11.016;2023-03-16T11:22:13;98661.84;;;6.95;52.67
21300;BME280;10809;49.476;11.016;2023-03-16T11:27:53;98662.38;;;7.04;52.97
21300;BME280;10809;49.476;11.016;2023-03-16T11:33:22;98659.44;;;7.13;52.21
21300;BME280;10809;49.476;11.016;2023-03-16T11:42:59;98656.03;;;7.34;52.30
21300;BME280;10809;49.476;11.016;2023-03-16T11:56:52;98635.88;;;7.56;52.37
21300;BME280;10809;49.476;11.016;2023-03-16T12:02:19;98639.84;;;7.66;50.97
21300;BME280;10809;49.476;11.016;2023-03-16T12:05:30;98629.06;;;7.72;51.35
21300;BME280;10809;49.476;11.016;2023-03-16T12:08:24;98628.06;;;7.76;50.89
21300;BME280;10809;49.476;11.016;2023-03-16T12:17:07;98621.47;;;7.87;51.27
21300;BME280;10809;49.476;11.016;2023-03-16T12:22:56;98607.22;;;7.92;51.01
21300;BME280;10809;49.476;11.016;2023-03-16T12:25:39;98610.56;;;7.96;50.87
21300;BME280;10809;49.476;11.016;2023-03-16T12:28:23;98605.97;;;8.01;50.85
21300;BME280;10809;49.476;11.016;2023-03-16T12:33:39;98596.00;;;8.09;50.78
21300;BME280;10809;49.476;11.016;2023-03-16T12:45:01;98584.13;;;8.19;49.39
21300;BME280;10809;49.476;11.016;2023-03-16T12:50:10;98584.94;;;8.21;49.82
21300;BME280;10809;49.476;11.016;2023-03-16T12:52:44;98568.16;;;8.22;49.82
21300;BME280;10809;49.476;11.016;2023-03-16T12:55:38;98557.41;;;8.26;50.47
21300;BME280;10809;49.476;11.016;2023-03-16T12:58:16;98557.22;;;8.31;49.57
21300;BME280;10809;49.476;11.016;2023-03-16T13:00:55;98557.97;;;8.34;50.16
21300;BME280;10809;49.476;11.016;2023-03-16T13:03:29;98566.63;;;8.38;48.86
21300;BME280;10809;49.476;11.016;2023-03-16T13:06:04;98569.13;;;8.41;48.65
21300;BME280;10809;49.476;11.016;2023-03-16T13:08:42;98560.34;;;8.40;49.13
21300;BME280;10809;49.476;11.016;2023-03-16T13:11:18;98561.91;;;8.44;49.14
21300;BME280;10809;49.476;11.016;2023-03-16T13:16:34;98552.03;;;8.49;49.95
21300;BME280;10809;49.476;11.016;2023-03-16T13:19:25;98573.75;;;8.56;49.52
21300;BME280;10809;49.476;11.016;2023-03-16T13:25:15;98568.94;;;8.65;48.94
21300;BME280;10809;49.476;11.016;2023-03-16T13:27:46;98569.59;;;8.70;48.57
21300;BME280;10809;49.476;11.016;2023-03-16T13:32:59;98561.41;;;8.76;48.82
21300;BME280;10809;49.476;11.016;2023-03-16T13:35:35;98564.72;;;8.81;49.08
21300;BME280;10809;49.476;11.016;2023-03-16T13:38:17;98562.81;;;8.85;48.70
21300;BME280;10809;49.476;11.016;2023-03-16T13:40:51;98559.09;;;8.89;48.15
21300;BME280;10809;49.476;11.016;2023-03-16T13:43:27;98558.00;;;8.93;48.20
21300;BME280;10809;49.476;11.016;2023-03-16T13:48:48;98547.25;;;8.97;48.39
21300;BME280;10809;49.476;11.016;2023-03-16T13:51:20;98554.13;;;9.01;47.84
21300;BME280;10809;49.476;11.016;2023-03-16T13:53:51;98552.16;;;9.05;47.76
21300;BME280;10809;49.476;11.016;2023-03-16T13:56:25;98543.28;;;9.07;47.44
21300;BME280;10809;49.476;11.016;2023-03-16T13:58:58;98544.84;;;9.11;47.71
21300;BME280;10809;49.476;11.016;2023-03-16T14:01:30;98526.28;;;9.13;47.31
21300;BME280;10809;49.476;11.016;2023-03-16T14:04:03;98517.34;;;9.15;46.93
21300;BME280;10809;49.476;11.016;2023-03-16T14:06:51;98512.78;;;9.19;47.16
21300;BME280;10809;49.476;11.016;2023-03-16T14:09:24;98506.41;;;9.23;47.05
21300;BME280;10809;49.476;11.016;2023-03-16T14:11:56;98512.19;;;9.31;47.40
21300;BME280;10809;49.476;11.016;2023-03-16T14:14:37;98510.06;;;9.39;47.42
21300;BME280;10809;49.476;11.016;2023-03-16T14:17:14;98494.69;;;9.47;47.29
21300;BME280;10809;49.476;11.016;2023-03-16T14:19:52;98496.03;;;9.55;47.51
21300;BME280;10809;49.476;11.016;2023-03-16T14:22:34;98486.88;;;9.63;47.01
21300;BME280;10809;49.476;11.016;2023-03-16T14:25:09;98482.28;;;9.66;46.15
21300;BME280;10809;49.476;11.016;2023-03-16T14:28:16;98468.91;;;9.69;47.20
21300;BME280;10809;49.476;11.016;2023-03-16T14:30:53;98490.00;;;9.71;46.50
21300;BME280;10809;49.476;11.016;2023-03-16T14:33:29;98494.41;;;9.70;46.42
21300;BME280;10809;49.476;11.016;2023-03-16T14:36:13;98491.69;;;9.72;46.49
21300;BME280;10809;49.476;11.016;2023-03-16T14:38:50;98487.34;;;9.71;46.18
21300;BME280;10809;49.476;11.016;2023-03-16T14:41:24;98471.47;;;9.71;45.54
21300;BME280;10809;49.476;11.016;2023-03-16T14:44:02;98482.13;;;9.69;45.41
21300;BME280;10809;49.476;11.016;2023-03-16T14:46:37;98469.06;;;9.66;45.49
21300;BME280;10809;49.476;11.016;2023-03-16T14:52:27;98466.50;;;9.65;46.12
21300;BME280;10809;49.476;11.016;2023-03-16T14:55:09;98460.34;;;9.64;45.19
21300;BME280;10809;49.476;11.016;2023-03-16T14:57:41;98463.84;;;9.65;45.23
21300;BME280;10809;49.476;11.016;2023-03-16T15:00:14;98456.78;;;9.65;45.24
21300;BME280;10809;49.476;11.016;2023-03-16T15:03:06;98454.16;;;9.65;45.53
21300;BME280;10809;49.476;11.016;2023-03-16T15:05:41;98438.28;;;9.65;44.89
21300;BME280;10809;49.476;11.016;2023-03-16T15:08:19;98444.50;;;9.64;44.88
21300;BME280;10809;49.476;11.016;2023-03-16T15:10:53;98441.09;;;9.62;44.45
21300;BME280;10809;49.476;11.016;2023-03-16T15:13:26;98444.63;;;9.61;44.56
21300;BME280;10809;49.476;11.016;2023-03-16T15:16:20;98443.97;;;9.57;44.48
21300;BME280;10809;49.476;11.016;2023-03-16T15:18:51;98442.44;;;9.52;44.43
21300;BME280;10809;49.476;11.016;2023-03-16T15:21:25;98438.34;;;9.46;44.19
21300;BME280;10809;49.476;11.016;2023-03-16T15:23:58;98447.44;;;9.41;43.67